createdAt,value
2023-03-22T00:01:15.780Z,7.37
2023-03-22T00:03:42.407Z,7.39
2023-03-22T00:06:09.958Z,7.30
2023-03-22T00:08:36.944Z,7.16
2023-03-22T00:11:04.223Z,7.29
2023-03-22T00:13:33.039Z,7.19
2023-03-22T00:16:02.776Z,7.18
2023-03-22T00:18:30.047Z,7.04
2023-03-22T00:20:58.936Z,7.11
2023-03-22T00:23:26.337Z,7.10
2023-03-22T00:25:54.949Z,7.07
2023-03-22T00:28:22.014Z,7.00
2023-03-22T00:30:57.604Z,6.93
2023-03-22T00:33:24.965Z,6.82
2023-03-22T00:35:56.689Z,6.87
2023-03-22T00:38:29.921Z,6.96
2023-03-22T00:41:22.901Z,6.89
2023-03-22T00:43:50.421Z,6.76
2023-03-22T00:46:19.226Z,6.74
2023-03-22T00:48:45.774Z,6.68
2023-03-22T00:51:13.448Z,6.70
2023-03-22T00:53:43.006Z,6.92
2023-03-22T00:56:13.829Z,6.71
2023-03-22T00:58:40.938Z,6.69
2023-03-22T01:01:08.052Z,6.61
2023-03-22T01:03:35.065Z,6.42
2023-03-22T01:06:01.936Z,6.51
2023-03-22T01:08:33.157Z,6.31
2023-03-22T01:11:01.273Z,6.23
2023-03-22T01:13:28.847Z,6.14
2023-03-22T01:15:57.731Z,6.15
2023-03-22T01:18:24.492Z,6.20
2023-03-22T01:20:52.352Z,6.11
2023-03-22T01:23:18.865Z,6.21
2023-03-22T01:25:45.363Z,6.34
2023-03-22T01:28:11.877Z,6.31
2023-03-22T01:30:42.109Z,6.12
2023-03-22T01:33:10.882Z,6.16
2023-03-22T01:35:37.786Z,6.15
2023-03-22T01:38:04.553Z,6.12
2023-03-22T01:40:32.783Z,6.13
2023-03-22T01:42:59.774Z,6.10
2023-03-22T01:45:40.840Z,6.13
2023-03-22T01:48:14.297Z,6.25
2023-03-22T01:50:45.758Z,6.18
2023-03-22T01:53:15.482Z,6.17
2023-03-22T01:55:42.503Z,6.38
2023-03-22T01:58:09.069Z,6.45
2023-03-22T02:00:36.843Z,6.63
2023-03-22T02:03:05.500Z,6.78
2023-03-22T02:05:34.530Z,6.80
2023-03-22T02:08:01.789Z,6.86
2023-03-22T02:10:29.871Z,6.91
2023-03-22T02:13:38.921Z,6.92
2023-03-22T02:16:23.466Z,6.93
2023-03-22T02:18:56.010Z,6.89
2023-03-22T02:21:41.219Z,6.76
2023-03-22T02:24:39.300Z,6.77
2023-03-22T02:27:36.803Z,6.74
2023-03-22T02:30:41.206Z,6.66
2023-03-22T02:33:28.078Z,6.68
2023-03-22T02:36:07.620Z,6.77
2023-03-22T02:39:04.506Z,6.69
2023-03-22T02:41:47.096Z,6.49
2023-03-22T02:44:25.539Z,6.06
2023-03-22T02:47:08.043Z,5.90
2023-03-22T02:49:52.103Z,5.82
2023-03-22T02:52:51.599Z,5.74
2023-03-22T02:55:33.609Z,5.72
2023-03-22T02:58:18.142Z,5.98
2023-03-22T03:00:47.014Z,6.11
2023-03-22T03:03:18.272Z,6.26
2023-03-22T03:05:54.949Z,6.30
2023-03-22T03:08:23.762Z,6.38
2023-03-22T03:10:51.543Z,6.48
2023-03-22T03:13:19.457Z,6.52
2023-03-22T03:15:57.423Z,6.70
2023-03-22T03:18:36.188Z,6.75
2023-03-22T03:21:11.396Z,6.78
2023-03-22T03:23:49.619Z,6.90
2023-03-22T03:26:37.294Z,7.04
2023-03-22T03:29:15.492Z,6.77
2023-03-22T03:32:10.521Z,6.58
2023-03-22T03:34:39.649Z,6.36
2023-03-22T03:37:10.495Z,6.29
2023-03-22T03:39:43.080Z,6.14
2023-03-22T03:42:13.629Z,6.00
2023-03-22T03:44:40.908Z,5.88
2023-03-22T03:47:09.283Z,5.73
2023-03-22T03:49:36.008Z,5.68
2023-03-22T03:52:05.116Z,5.66
2023-03-22T03:54:32.036Z,5.60
2023-03-22T03:56:58.646Z,5.71
2023-03-22T03:59:25.117Z,5.66
2023-03-22T04:01:52.573Z,5.74
2023-03-22T04:04:26.903Z,5.70
2023-03-22T04:07:01.459Z,5.70
2023-03-22T04:09:33.520Z,5.67
2023-03-22T04:12:00.276Z,5.56
2023-03-22T04:14:27.181Z,5.53
2023-03-22T04:16:54.979Z,5.53
2023-03-22T04:19:22.290Z,5.59
2023-03-22T04:21:48.965Z,5.69
2023-03-22T04:24:15.517Z,5.73
2023-03-22T04:26:41.942Z,5.79
2023-03-22T04:29:08.435Z,5.80
2023-03-22T04:31:39.095Z,5.81
2023-03-22T04:34:06.898Z,5.68
2023-03-22T04:36:38.760Z,5.65
2023-03-22T04:39:08.700Z,5.60
2023-03-22T04:41:36.026Z,5.42
2023-03-22T04:44:03.827Z,5.30
2023-03-22T04:46:30.982Z,5.19
2023-03-22T04:48:57.526Z,5.07
2023-03-22T04:51:25.249Z,5.16
2023-03-22T04:53:52.198Z,4.96
2023-03-22T04:56:18.965Z,4.97
2023-03-22T04:58:45.787Z,5.27
2023-03-22T05:01:15.344Z,5.45
2023-03-22T05:03:43.050Z,5.37
2023-03-22T05:06:13.317Z,5.12
2023-03-22T05:08:41.577Z,5.28
2023-03-22T05:11:13.503Z,5.27
2023-03-22T05:13:40.728Z,5.52
2023-03-22T05:16:08.175Z,5.64
2023-03-22T05:18:37.910Z,5.61
2023-03-22T05:21:06.690Z,5.45
2023-03-22T05:23:33.202Z,5.35
2023-03-22T05:26:01.603Z,5.36
2023-03-22T05:28:28.441Z,5.48
2023-03-22T05:30:57.099Z,5.49
2023-03-22T05:33:23.758Z,5.28
2023-03-22T05:35:51.169Z,5.22
2023-03-22T05:38:18.033Z,5.20
2023-03-22T05:40:45.179Z,4.84
2023-03-22T05:43:12.700Z,4.96
2023-03-22T05:45:39.597Z,4.85
2023-03-22T05:48:06.297Z,4.81
2023-03-22T05:50:33.217Z,4.70
2023-03-22T05:53:00.523Z,4.82
2023-03-22T05:55:27.581Z,4.80
2023-03-22T05:57:54.756Z,4.93
2023-03-22T06:00:23.738Z,4.97
2023-03-22T06:02:52.377Z,4.92
2023-03-22T06:05:21.034Z,5.02
2023-03-22T06:07:47.626Z,5.07
2023-03-22T06:10:15.470Z,5.27
2023-03-22T06:12:42.144Z,5.32
2023-03-22T06:15:09.481Z,5.35
2023-03-22T06:17:36.495Z,5.32
2023-03-22T06:20:09.372Z,5.38
2023-03-22T06:22:35.953Z,5.40
2023-03-22T06:25:02.750Z,5.36
2023-03-22T06:27:29.557Z,5.39
2023-03-22T06:29:56.087Z,5.43
2023-03-22T06:32:26.767Z,5.57
2023-03-22T06:34:54.774Z,5.68
2023-03-22T06:37:22.256Z,5.81
2023-03-22T06:39:49.092Z,5.93
2023-03-22T06:42:15.762Z,6.06
2023-03-22T06:44:43.979Z,6.23
2023-03-22T06:47:11.733Z,6.31
2023-03-22T06:49:38.638Z,6.35
2023-03-22T06:52:05.421Z,6.52
2023-03-22T06:54:31.865Z,6.57
2023-03-22T06:56:58.301Z,6.69
2023-03-22T06:59:24.737Z,6.68
2023-03-22T07:01:51.422Z,6.90
2023-03-22T07:04:18.114Z,7.04
2023-03-22T07:06:44.740Z,7.18
2023-03-22T07:09:11.421Z,7.26
2023-03-22T07:11:37.933Z,7.18
2023-03-22T07:14:04.461Z,7.38
2023-03-22T07:16:30.978Z,7.50
2023-03-22T07:18:57.522Z,7.74
2023-03-22T07:21:24.050Z,7.94
2023-03-22T07:23:50.599Z,8.16
2023-03-22T07:26:17.063Z,8.30
2023-03-22T07:28:44.697Z,8.39
2023-03-22T07:31:15.287Z,8.38
2023-03-22T07:33:41.917Z,8.35
2023-03-22T07:36:09.257Z,8.36
2023-03-22T07:38:36.065Z,8.58
2023-03-22T07:41:02.928Z,8.68
2023-03-22T07:43:29.493Z,8.94
2023-03-22T07:45:56.602Z,9.07
2023-03-22T07:48:23.710Z,9.34
2023-03-22T07:50:55.770Z,9.87
2023-03-22T07:53:22.274Z,10.31
2023-03-22T07:55:48.794Z,10.71
2023-03-22T07:58:15.241Z,10.90
2023-03-22T08:00:44.870Z,11.08
2023-03-22T08:03:14.688Z,11.19
2023-03-22T08:05:43.612Z,11.35
2023-03-22T08:08:13.655Z,11.29
2023-03-22T08:10:41.885Z,11.26
2023-03-22T08:13:08.508Z,11.50
2023-03-22T08:15:37.652Z,11.74
2023-03-22T08:18:04.349Z,12.00
2023-03-22T08:20:30.876Z,12.35
2023-03-22T08:22:57.554Z,12.71
2023-03-22T08:25:24.625Z,13.12
2023-03-22T08:27:51.645Z,13.71
2023-03-22T08:30:18.488Z,13.90
2023-03-22T08:32:45.573Z,13.60
2023-03-22T08:35:13.128Z,13.36
2023-03-22T08:37:42.496Z,13.44
2023-03-22T08:40:12.600Z,13.59
2023-03-22T08:42:41.954Z,14.09
2023-03-22T08:45:13.391Z,14.46
2023-03-22T08:47:42.991Z,14.07
2023-03-22T08:50:15.136Z,14.22
2023-03-22T08:52:44.940Z,14.34
2023-03-22T08:55:17.436Z,14.49
2023-03-22T08:57:50.304Z,14.65
2023-03-22T09:00:25.626Z,14.93
2023-03-22T09:02:52.234Z,15.13
2023-03-22T09:05:18.942Z,15.47
2023-03-22T09:07:45.778Z,15.96
2023-03-22T09:10:16.944Z,16.34
2023-03-22T09:12:43.476Z,16.04
2023-03-22T09:15:14.797Z,15.71
2023-03-22T09:17:45.756Z,15.77
2023-03-22T09:20:15.422Z,16.64
2023-03-22T09:22:44.694Z,16.91
2023-03-22T09:25:14.744Z,17.55
2023-03-22T09:27:44.553Z,17.89
2023-03-22T09:30:13.873Z,17.89
2023-03-22T09:32:43.024Z,17.84
2023-03-22T09:35:11.711Z,17.62
2023-03-22T09:37:38.936Z,17.09
2023-03-22T09:40:07.378Z,17.29
2023-03-22T09:42:38.589Z,17.63
2023-03-22T09:45:12.842Z,17.61
2023-03-22T09:47:54.789Z,17.73
2023-03-22T09:50:25.011Z,18.16
2023-03-22T09:52:52.814Z,18.64
2023-03-22T09:55:25.788Z,18.94
2023-03-22T09:58:07.666Z,19.11
2023-03-22T10:01:02.920Z,19.42
2023-03-22T10:04:03.176Z,20.10
2023-03-22T10:06:31.037Z,20.25
2023-03-22T10:09:14.513Z,20.24
2023-03-22T10:11:52.486Z,20.71
2023-03-22T10:14:31.088Z,21.32
2023-03-22T10:17:03.790Z,21.59
2023-03-22T10:19:35.664Z,22.14
2023-03-22T10:22:04.357Z,22.89
2023-03-22T10:24:36.573Z,23.37
2023-03-22T10:27:06.818Z,23.81
2023-03-22T10:29:42.030Z,24.57
2023-03-22T10:32:17.392Z,25.19
2023-03-22T10:34:44.528Z,25.74
2023-03-22T10:37:20.531Z,25.89
2023-03-22T10:39:52.383Z,26.18
2023-03-22T10:42:29.970Z,26.23
2023-03-22T10:45:01.968Z,26.32
2023-03-22T10:47:40.625Z,26.08
2023-03-22T10:50:36.605Z,26.17
2023-03-22T10:53:15.206Z,25.96
2023-03-22T10:55:44.852Z,26.27
2023-03-22T10:58:22.584Z,26.65
2023-03-22T11:00:54.322Z,27.16
2023-03-22T11:03:37.584Z,27.29
2023-03-22T11:06:13.393Z,27.48
2023-03-22T11:08:47.828Z,27.80
2023-03-22T11:11:24.969Z,27.83
2023-03-22T11:13:55.692Z,27.76
2023-03-22T11:16:23.745Z,27.69
2023-03-22T11:18:51.137Z,26.84
2023-03-22T11:21:21.335Z,26.64
2023-03-22T11:23:57.642Z,26.86
2023-03-22T11:26:31.616Z,27.44
2023-03-22T11:29:21.569Z,27.47
2023-03-22T11:31:57.441Z,26.71
2023-03-22T11:34:29.916Z,25.76
2023-03-22T11:37:00.436Z,24.59
2023-03-22T11:39:29.429Z,23.96
2023-03-22T11:42:06.309Z,23.64
2023-03-22T11:44:35.516Z,23.52
2023-03-22T11:47:04.235Z,24.06
2023-03-22T11:49:40.407Z,23.69
2023-03-22T11:52:10.213Z,22.57
2023-03-22T11:54:39.107Z,22.71
2023-03-22T11:57:16.222Z,23.28
2023-03-22T12:00:11.347Z,24.30
2023-03-22T12:02:47.314Z,24.69
2023-03-22T12:05:16.354Z,24.33
2023-03-22T12:07:43.401Z,24.07
2023-03-22T12:10:16.941Z,24.14
2023-03-22T12:12:51.457Z,24.20
2023-03-22T12:15:22.333Z,24.38
2023-03-22T12:18:12.611Z,24.45
2023-03-22T12:20:58.300Z,24.49
2023-03-22T12:23:30.669Z,24.40
2023-03-22T12:26:12.440Z,24.91
2023-03-22T12:28:47.484Z,25.28
2023-03-22T12:31:24.219Z,25.24
2023-03-22T12:33:54.845Z,25.12
2023-03-22T12:36:28.174Z,24.57
2023-03-22T12:38:57.397Z,24.22
2023-03-22T12:41:34.576Z,24.85
2023-03-22T12:44:10.674Z,25.66
2023-03-22T12:46:53.610Z,25.70
2023-03-22T12:49:46.904Z,25.56
2023-03-22T12:52:18.962Z,25.61
2023-03-22T12:54:51.104Z,25.56
2023-03-22T12:57:18.668Z,25.38
2023-03-22T12:59:52.976Z,25.40
2023-03-22T13:02:27.581Z,25.06
2023-03-22T13:04:57.321Z,24.72
2023-03-22T13:07:39.128Z,24.11
2023-03-22T13:10:36.306Z,23.93
2023-03-22T13:13:38.503Z,23.43
2023-03-22T13:16:11.098Z,24.07
2023-03-22T13:18:58.285Z,24.49
2023-03-22T13:21:27.476Z,24.73
2023-03-22T13:24:00.512Z,24.81
2023-03-22T13:26:46.041Z,24.56
2023-03-22T13:29:25.235Z,24.31
2023-03-22T13:31:51.796Z,24.42
2023-03-22T13:34:36.206Z,24.49
2023-03-22T13:37:05.304Z,24.56
2023-03-22T13:39:34.676Z,24.50
2023-03-22T13:42:37.967Z,24.24
2023-03-22T13:45:09.922Z,24.26
2023-03-22T13:47:43.902Z,24.29
2023-03-22T13:50:32.285Z,24.26
2023-03-22T13:53:05.056Z,24.40
2023-03-22T13:55:58.477Z,24.51
2023-03-22T13:58:36.259Z,25.00
2023-03-22T14:01:13.569Z,25.09
2023-03-22T14:03:45.755Z,25.17
2023-03-22T14:06:25.578Z,25.07
2023-03-22T14:08:58.703Z,25.08
2023-03-22T14:11:46.037Z,24.73
2023-03-22T14:14:27.240Z,24.36
2023-03-22T14:17:20.313Z,24.29
2023-03-22T14:19:50.258Z,24.19
